N9035S KPHF-KEWR
Flight info
| Callsign | N9035S |
|---|---|
| Flight time | 1h 26m |
| Altitude | 11000 |
| Route | HOUKY SHLBK BRAND1 |
| Aircraft | BE58/L-SDFGRY/C |
Departure
| Time | 2026-04-30 18:28 |
|---|---|
| Airport | Newport News Williamsburg International Airport (KPHF) |
Arrival
| Time | 2026-04-30 19:55 |
|---|---|
| Airport | Newark Liberty International Airport (KEWR) |
| Time | Latitude | Longitude | Altitude | Speed | Heading |
|---|---|---|---|---|---|
| 2026-04-30 18:17 | 37.13582 | -76.49895 | 44 ft | 0 kts | 287° |
| 2026-04-30 18:24 | 37.13573 | -76.49804 | 44 ft | 15 kts | 157° |
| 2026-04-30 18:24 | 37.13454 | -76.49838 | 44 ft | 21 kts | 194° |
| 2026-04-30 18:24 | 37.13307 | -76.49892 | 43 ft | 23 kts | 190° |
| 2026-04-30 18:25 | 37.13173 | -76.49823 | 44 ft | 24 kts | 109° |
| 2026-04-30 18:25 | 37.13094 | -76.49380 | 42 ft | 28 kts | 96° |
| 2026-04-30 18:25 | 37.13163 | -76.49158 | 42 ft | 28 kts | 61° |
| 2026-04-30 18:26 | 37.13366 | -76.48754 | 42 ft | 27 kts | 60° |
| 2026-04-30 18:26 | 37.13468 | -76.48557 | 43 ft | 27 kts | 55° |
| 2026-04-30 18:26 | 37.13554 | -76.48353 | 43 ft | 26 kts | 66° |
| 2026-04-30 18:27 | 37.13734 | -76.47954 | 43 ft | 26 kts | 63° |
| 2026-04-30 18:27 | 37.13728 | -76.47886 | 43 ft | 7 kts | 129° |
| 2026-04-30 18:28 | 37.13613 | -76.47943 | 43 ft | 51 kts | 240° |
| 2026-04-30 18:28 | 37.13285 | -76.48574 | 183 ft | 104 kts | 242° |
| 2026-04-30 18:28 | 37.12544 | -76.50456 | 1125 ft | 144 kts | 269° |
| 2026-04-30 18:29 | 37.12886 | -76.51624 | 1556 ft | 147 kts | 310° |
| 2026-04-30 18:29 | 37.14305 | -76.54862 | 2564 ft | 152 kts | 288° |
| 2026-04-30 18:30 | 37.14941 | -76.56984 | 2970 ft | 159 kts | 292° |
| 2026-04-30 18:30 | 37.15859 | -76.59792 | 3515 ft | 164 kts | 292° |
| 2026-04-30 18:31 | 37.16290 | -76.61107 | 3808 ft | 162 kts | 291° |
| 2026-04-30 18:31 | 37.17145 | -76.63718 | 4413 ft | 162 kts | 291° |
| 2026-04-30 18:32 | 37.17995 | -76.66316 | 5014 ft | 161 kts | 291° |
| 2026-04-30 18:32 | 37.18416 | -76.67606 | 5296 ft | 158 kts | 291° |
| 2026-04-30 18:32 | 37.19247 | -76.70149 | 5909 ft | 156 kts | 290° |
| 2026-04-30 18:33 | 37.19657 | -76.71404 | 6214 ft | 156 kts | 290° |
| 2026-04-30 18:33 | 37.20482 | -76.73935 | 6792 ft | 157 kts | 290° |
| 2026-04-30 18:33 | 37.20886 | -76.75174 | 7078 ft | 154 kts | 290° |
| 2026-04-30 18:34 | 37.21286 | -76.76401 | 7369 ft | 150 kts | 289° |
| 2026-04-30 18:34 | 37.22055 | -76.78760 | 7962 ft | 142 kts | 288° |
| 2026-04-30 18:34 | 37.22425 | -76.79898 | 8262 ft | 139 kts | 288° |
| 2026-04-30 18:35 | 37.22786 | -76.81007 | 8563 ft | 136 kts | 288° |
| 2026-04-30 18:35 | 37.23139 | -76.82091 | 8863 ft | 133 kts | 287° |
| 2026-04-30 18:35 | 37.23479 | -76.83137 | 9176 ft | 129 kts | 286° |
| 2026-04-30 18:36 | 37.24139 | -76.85169 | 9792 ft | 122 kts | 285° |
| 2026-04-30 18:36 | 37.24457 | -76.86148 | 10067 ft | 120 kts | 285° |
| 2026-04-30 18:36 | 37.24989 | -76.87790 | 10445 ft | 124 kts | 285° |
| 2026-04-30 18:37 | 37.25425 | -76.89134 | 10736 ft | 127 kts | 285° |
| 2026-04-30 18:37 | 37.25765 | -76.90185 | 10868 ft | 135 kts | 285° |
| 2026-04-30 18:37 | 37.26005 | -76.90930 | 10872 ft | 142 kts | 286° |
| 2026-04-30 18:37 | 37.26389 | -76.92112 | 10880 ft | 149 kts | 286° |
| 2026-04-30 18:38 | 37.26785 | -76.93332 | 10885 ft | 152 kts | 286° |
| 2026-04-30 18:38 | 37.27182 | -76.94557 | 10882 ft | 154 kts | 287° |
| 2026-04-30 18:38 | 37.27590 | -76.95812 | 10886 ft | 156 kts | 287° |
| 2026-04-30 18:38 | 37.27999 | -76.97078 | 10885 ft | 157 kts | 287° |
| 2026-04-30 18:39 | 37.28410 | -76.98346 | 10885 ft | 157 kts | 287° |
| 2026-04-30 18:39 | 37.28822 | -76.99620 | 10886 ft | 157 kts | 287° |
| 2026-04-30 18:39 | 37.29234 | -77.00894 | 10885 ft | 157 kts | 287° |
| 2026-04-30 18:39 | 37.29641 | -77.02157 | 10888 ft | 158 kts | 287° |
| 2026-04-30 18:40 | 37.30054 | -77.03433 | 10887 ft | 157 kts | 287° |
| 2026-04-30 18:40 | 37.30465 | -77.04710 | 10888 ft | 158 kts | 287° |
| 2026-04-30 18:40 | 37.30878 | -77.05989 | 10889 ft | 158 kts | 287° |
| 2026-04-30 18:40 | 37.31291 | -77.07271 | 10890 ft | 158 kts | 287° |
| 2026-04-30 18:41 | 37.31705 | -77.08555 | 10888 ft | 158 kts | 287° |
| 2026-04-30 18:41 | 37.32118 | -77.09835 | 10888 ft | 158 kts | 287° |
| 2026-04-30 18:41 | 37.32537 | -77.11107 | 10887 ft | 158 kts | 290° |
| 2026-04-30 18:41 | 37.33322 | -77.12130 | 10889 ft | 174 kts | 321° |
| 2026-04-30 18:42 | 37.34556 | -77.12470 | 10886 ft | 194 kts | 351° |
| 2026-04-30 18:42 | 37.37014 | -77.10639 | 10882 ft | 222 kts | 42° |
| 2026-04-30 18:42 | 37.38076 | -77.09285 | 10884 ft | 217 kts | 30° |
| 2026-04-30 18:45 | 37.50569 | -76.99148 | 11039 ft | 214 kts | 24° |
| 2026-04-30 18:45 | 37.51822 | -76.98123 | 11037 ft | 215 kts | 24° |
| 2026-04-30 18:45 | 37.53076 | -76.97098 | 11039 ft | 215 kts | 24° |
| 2026-04-30 18:46 | 37.54329 | -76.96073 | 11038 ft | 215 kts | 24° |
| 2026-04-30 18:46 | 37.55581 | -76.95050 | 11040 ft | 215 kts | 24° |
| 2026-04-30 18:46 | 37.56834 | -76.94025 | 11043 ft | 215 kts | 24° |
| 2026-04-30 18:46 | 37.58071 | -76.93013 | 11043 ft | 215 kts | 24° |
| 2026-04-30 18:47 | 37.59325 | -76.91987 | 11045 ft | 215 kts | 24° |
| 2026-04-30 18:47 | 37.60583 | -76.90956 | 11048 ft | 216 kts | 24° |
| 2026-04-30 18:47 | 37.61844 | -76.89923 | 11047 ft | 216 kts | 24° |
| 2026-04-30 18:47 | 37.63104 | -76.88890 | 11048 ft | 215 kts | 24° |
| 2026-04-30 18:48 | 37.64361 | -76.87859 | 11051 ft | 216 kts | 24° |
| 2026-04-30 18:48 | 37.65609 | -76.86836 | 11049 ft | 216 kts | 24° |
| 2026-04-30 18:48 | 37.66872 | -76.85800 | 11046 ft | 217 kts | 24° |
| 2026-04-30 18:48 | 37.68137 | -76.84761 | 11045 ft | 217 kts | 24° |
| 2026-04-30 18:49 | 37.69401 | -76.83721 | 11046 ft | 216 kts | 24° |
| 2026-04-30 18:49 | 37.70662 | -76.82685 | 11047 ft | 216 kts | 24° |
| 2026-04-30 18:49 | 37.71924 | -76.81649 | 11048 ft | 216 kts | 24° |
| 2026-04-30 18:49 | 37.73185 | -76.80611 | 11048 ft | 216 kts | 24° |
| 2026-04-30 18:50 | 37.74442 | -76.79577 | 11049 ft | 215 kts | 24° |
| 2026-04-30 18:50 | 37.75695 | -76.78545 | 11048 ft | 214 kts | 23° |
| 2026-04-30 18:50 | 37.76946 | -76.77516 | 11050 ft | 214 kts | 24° |
| 2026-04-30 18:50 | 37.78198 | -76.76485 | 11050 ft | 215 kts | 24° |
| 2026-04-30 18:51 | 37.79457 | -76.75449 | 11050 ft | 216 kts | 24° |
| 2026-04-30 18:51 | 37.80714 | -76.74411 | 11051 ft | 215 kts | 24° |
| 2026-04-30 18:51 | 37.81971 | -76.73374 | 11047 ft | 215 kts | 24° |
| 2026-04-30 18:51 | 37.83226 | -76.72339 | 11047 ft | 216 kts | 24° |
| 2026-04-30 18:52 | 37.84465 | -76.71317 | 11049 ft | 216 kts | 24° |
| 2026-04-30 18:52 | 37.85725 | -76.70277 | 11046 ft | 216 kts | 24° |
| 2026-04-30 18:52 | 37.86982 | -76.69238 | 11045 ft | 216 kts | 24° |
| 2026-04-30 18:52 | 37.88244 | -76.68195 | 11048 ft | 216 kts | 24° |
| 2026-04-30 18:53 | 37.89508 | -76.67150 | 11045 ft | 216 kts | 24° |
| 2026-04-30 18:53 | 37.90766 | -76.66108 | 11046 ft | 216 kts | 24° |
| 2026-04-30 18:53 | 37.92024 | -76.65068 | 11043 ft | 216 kts | 24° |
| 2026-04-30 18:53 | 37.93282 | -76.64027 | 11043 ft | 216 kts | 24° |
| 2026-04-30 18:54 | 37.94543 | -76.62983 | 11040 ft | 216 kts | 24° |
| 2026-04-30 18:54 | 37.95806 | -76.61936 | 11036 ft | 216 kts | 24° |
| 2026-04-30 18:54 | 37.97065 | -76.60892 | 11025 ft | 216 kts | 24° |
| 2026-04-30 18:54 | 37.98324 | -76.59848 | 11024 ft | 216 kts | 24° |
| 2026-04-30 18:55 | 37.99566 | -76.58818 | 11025 ft | 216 kts | 24° |
| 2026-04-30 18:55 | 38.02094 | -76.56720 | 11027 ft | 217 kts | 24° |
| 2026-04-30 18:55 | 38.03359 | -76.55669 | 11018 ft | 217 kts | 24° |
| 2026-04-30 18:56 | 38.05883 | -76.53571 | 11022 ft | 217 kts | 24° |
| 2026-04-30 18:56 | 38.07149 | -76.52519 | 11023 ft | 217 kts | 24° |
| 2026-04-30 18:56 | 38.08412 | -76.51468 | 11022 ft | 217 kts | 24° |
| 2026-04-30 18:57 | 38.10921 | -76.49380 | 11027 ft | 217 kts | 24° |
| 2026-04-30 18:57 | 38.12185 | -76.48327 | 11017 ft | 217 kts | 24° |
| 2026-04-30 18:57 | 38.13453 | -76.47270 | 11023 ft | 218 kts | 24° |
| 2026-04-30 18:58 | 38.15987 | -76.45157 | 11024 ft | 218 kts | 24° |
| 2026-04-30 18:58 | 38.17255 | -76.44098 | 11025 ft | 218 kts | 24° |
| 2026-04-30 18:58 | 38.18509 | -76.43052 | 11026 ft | 218 kts | 24° |
| 2026-04-30 18:59 | 38.21045 | -76.40934 | 11022 ft | 218 kts | 24° |
| 2026-04-30 19:00 | 38.24850 | -76.37752 | 11019 ft | 217 kts | 24° |
| 2026-04-30 19:00 | 38.26115 | -76.36693 | 11025 ft | 217 kts | 24° |
| 2026-04-30 19:00 | 38.28644 | -76.34576 | 11023 ft | 218 kts | 24° |
| 2026-04-30 19:01 | 38.31177 | -76.32453 | 11021 ft | 218 kts | 24° |
| 2026-04-30 19:01 | 38.32443 | -76.31391 | 11020 ft | 218 kts | 24° |
| 2026-04-30 19:02 | 38.34961 | -76.29278 | 11025 ft | 218 kts | 24° |
| 2026-04-30 19:02 | 38.37491 | -76.27153 | 11022 ft | 218 kts | 24° |
| 2026-04-30 19:03 | 38.40031 | -76.25017 | 11026 ft | 219 kts | 24° |
| 2026-04-30 19:03 | 38.42567 | -76.22883 | 11018 ft | 218 kts | 24° |
| 2026-04-30 19:04 | 38.45100 | -76.20750 | 11021 ft | 218 kts | 25° |
| 2026-04-30 19:04 | 38.47629 | -76.18620 | 11031 ft | 217 kts | 25° |
| 2026-04-30 19:05 | 38.50138 | -76.16502 | 11036 ft | 218 kts | 25° |
| 2026-04-30 19:05 | 38.52673 | -76.14362 | 11030 ft | 218 kts | 25° |
| 2026-04-30 19:06 | 38.55205 | -76.12224 | 11033 ft | 218 kts | 25° |
| 2026-04-30 19:06 | 38.56473 | -76.11151 | 11030 ft | 218 kts | 25° |
| 2026-04-30 19:06 | 38.59008 | -76.09007 | 11031 ft | 218 kts | 25° |
| 2026-04-30 19:07 | 38.61520 | -76.06879 | 11031 ft | 218 kts | 25° |
| 2026-04-30 19:07 | 38.62787 | -76.05806 | 11028 ft | 217 kts | 25° |
| 2026-04-30 19:08 | 38.65310 | -76.03668 | 11033 ft | 218 kts | 25° |
| 2026-04-30 19:08 | 38.67838 | -76.01522 | 11027 ft | 218 kts | 25° |
| 2026-04-30 19:08 | 38.69103 | -76.00447 | 11030 ft | 218 kts | 25° |
| 2026-04-30 19:09 | 38.71621 | -75.98307 | 11026 ft | 218 kts | 25° |
| 2026-04-30 19:09 | 38.72887 | -75.97232 | 11029 ft | 218 kts | 25° |
| 2026-04-30 19:09 | 38.74147 | -75.96159 | 11030 ft | 218 kts | 25° |
| 2026-04-30 19:10 | 38.76679 | -75.94006 | 11033 ft | 218 kts | 25° |
| 2026-04-30 19:10 | 38.79201 | -75.91856 | 11034 ft | 218 kts | 25° |
| 2026-04-30 19:11 | 38.80447 | -75.90794 | 11036 ft | 217 kts | 25° |
| 2026-04-30 19:11 | 38.82969 | -75.88643 | 11036 ft | 218 kts | 25° |
| 2026-04-30 19:11 | 38.84232 | -75.87565 | 11036 ft | 218 kts | 26° |
| 2026-04-30 19:12 | 38.85496 | -75.86486 | 11036 ft | 218 kts | 26° |
| 2026-04-30 19:12 | 38.86761 | -75.85405 | 11037 ft | 218 kts | 25° |
| 2026-04-30 19:12 | 38.88023 | -75.84326 | 11034 ft | 218 kts | 25° |
| 2026-04-30 19:13 | 38.90548 | -75.82167 | 11034 ft | 218 kts | 25° |
| 2026-04-30 19:13 | 38.93071 | -75.80008 | 11035 ft | 218 kts | 26° |
| 2026-04-30 19:13 | 38.94318 | -75.78939 | 11031 ft | 218 kts | 26° |
| 2026-04-30 19:14 | 38.95580 | -75.77858 | 11032 ft | 218 kts | 26° |
| 2026-04-30 19:14 | 38.96839 | -75.76778 | 11027 ft | 218 kts | 26° |
| 2026-04-30 19:14 | 38.98098 | -75.75698 | 11010 ft | 217 kts | 26° |
| 2026-04-30 19:14 | 38.99357 | -75.74619 | 11010 ft | 218 kts | 26° |
| 2026-04-30 19:15 | 39.00618 | -75.73537 | 11010 ft | 218 kts | 26° |
| 2026-04-30 19:15 | 39.03144 | -75.71367 | 11005 ft | 218 kts | 26° |
| 2026-04-30 19:15 | 39.04412 | -75.70278 | 11002 ft | 220 kts | 26° |
| 2026-04-30 19:16 | 39.05690 | -75.69179 | 11000 ft | 220 kts | 26° |
| 2026-04-30 19:16 | 39.06962 | -75.68083 | 11000 ft | 219 kts | 26° |
| 2026-04-30 19:16 | 39.09478 | -75.65918 | 10997 ft | 218 kts | 26° |
| 2026-04-30 19:17 | 39.10740 | -75.64830 | 10996 ft | 217 kts | 26° |
| 2026-04-30 19:17 | 39.13247 | -75.62670 | 10997 ft | 216 kts | 26° |
| 2026-04-30 19:17 | 39.14496 | -75.61593 | 10994 ft | 216 kts | 26° |
| 2026-04-30 19:18 | 39.16574 | -75.59799 | 10994 ft | 216 kts | 26° |
| 2026-04-30 19:18 | 39.18247 | -75.58354 | 10995 ft | 216 kts | 26° |
| 2026-04-30 19:18 | 39.19494 | -75.57277 | 10996 ft | 216 kts | 26° |
| 2026-04-30 19:19 | 39.20745 | -75.56196 | 10995 ft | 216 kts | 26° |
| 2026-04-30 19:19 | 39.21992 | -75.55117 | 10996 ft | 216 kts | 26° |
| 2026-04-30 19:19 | 39.24474 | -75.52970 | 10995 ft | 216 kts | 26° |
| 2026-04-30 19:20 | 39.25723 | -75.51888 | 10996 ft | 216 kts | 26° |
| 2026-04-30 19:20 | 39.26969 | -75.50808 | 10998 ft | 216 kts | 26° |
| 2026-04-30 19:20 | 39.29459 | -75.48650 | 10998 ft | 215 kts | 26° |
| 2026-04-30 19:21 | 39.30701 | -75.47573 | 11002 ft | 215 kts | 26° |
| 2026-04-30 19:21 | 39.33172 | -75.45429 | 11002 ft | 215 kts | 27° |
| 2026-04-30 19:22 | 39.35650 | -75.43275 | 11004 ft | 214 kts | 27° |
| 2026-04-30 19:22 | 39.39351 | -75.40057 | 11014 ft | 214 kts | 27° |
| 2026-04-30 19:23 | 39.43054 | -75.36832 | 11016 ft | 213 kts | 27° |
| 2026-04-30 19:24 | 39.45518 | -75.34684 | 11014 ft | 213 kts | 27° |
| 2026-04-30 19:24 | 39.46745 | -75.33615 | 11014 ft | 214 kts | 27° |
| 2026-04-30 19:24 | 39.49197 | -75.31474 | 11013 ft | 214 kts | 27° |
| 2026-04-30 19:25 | 39.52903 | -75.28236 | 11013 ft | 213 kts | 27° |
| 2026-04-30 19:26 | 39.55364 | -75.26083 | 11011 ft | 213 kts | 27° |
| 2026-04-30 19:26 | 39.57825 | -75.23928 | 11015 ft | 213 kts | 27° |
| 2026-04-30 19:26 | 39.58639 | -75.23216 | 11017 ft | 213 kts | 27° |
| 2026-04-30 19:27 | 39.61089 | -75.21068 | 11016 ft | 213 kts | 27° |
| 2026-04-30 19:27 | 39.63551 | -75.18908 | 11019 ft | 213 kts | 27° |
| 2026-04-30 19:28 | 39.64778 | -75.17831 | 11018 ft | 213 kts | 27° |
| 2026-04-30 19:28 | 39.67239 | -75.15668 | 11018 ft | 213 kts | 27° |
| 2026-04-30 19:29 | 39.69695 | -75.13510 | 11020 ft | 213 kts | 27° |
| 2026-04-30 19:29 | 39.70923 | -75.12429 | 11018 ft | 213 kts | 27° |
| 2026-04-30 19:30 | 39.74616 | -75.09178 | 11021 ft | 215 kts | 27° |
| 2026-04-30 19:30 | 39.77073 | -75.07010 | 11021 ft | 214 kts | 27° |
| 2026-04-30 19:31 | 39.79534 | -75.04839 | 11022 ft | 213 kts | 27° |
| 2026-04-30 19:31 | 39.80760 | -75.03757 | 11022 ft | 213 kts | 27° |
| 2026-04-30 19:31 | 39.83206 | -75.01596 | 11023 ft | 212 kts | 27° |
| 2026-04-30 19:32 | 39.84427 | -75.00517 | 11020 ft | 212 kts | 27° |
| 2026-04-30 19:32 | 39.85563 | -74.99284 | 11017 ft | 216 kts | 41° |
| 2026-04-30 19:32 | 39.86560 | -74.97844 | 11023 ft | 217 kts | 44° |
| 2026-04-30 19:32 | 39.87569 | -74.96370 | 11020 ft | 217 kts | 43° |
| 2026-04-30 19:33 | 39.88585 | -74.94921 | 11020 ft | 217 kts | 42° |
| 2026-04-30 19:33 | 39.89606 | -74.93473 | 11018 ft | 216 kts | 43° |
| 2026-04-30 19:33 | 39.90623 | -74.92025 | 11022 ft | 216 kts | 43° |
| 2026-04-30 19:33 | 39.91637 | -74.90578 | 11022 ft | 216 kts | 43° |
| 2026-04-30 19:34 | 39.92652 | -74.89130 | 11024 ft | 216 kts | 43° |
| 2026-04-30 19:34 | 39.93652 | -74.87703 | 11019 ft | 216 kts | 43° |
| 2026-04-30 19:34 | 39.95677 | -74.84811 | 11017 ft | 217 kts | 43° |
| 2026-04-30 19:35 | 39.96698 | -74.83352 | 11024 ft | 217 kts | 43° |
| 2026-04-30 19:35 | 39.97717 | -74.81895 | 11014 ft | 217 kts | 43° |
| 2026-04-30 19:35 | 39.98732 | -74.80442 | 11016 ft | 216 kts | 43° |
| 2026-04-30 19:35 | 39.99742 | -74.78996 | 11018 ft | 216 kts | 43° |
| 2026-04-30 19:36 | 40.00813 | -74.77645 | 11016 ft | 211 kts | 31° |
| 2026-04-30 19:36 | 40.02024 | -74.76583 | 11013 ft | 209 kts | 27° |
| 2026-04-30 19:36 | 40.04399 | -74.74348 | 11008 ft | 211 kts | 32° |
| 2026-04-30 19:37 | 40.05556 | -74.73198 | 11005 ft | 211 kts | 31° |
| 2026-04-30 19:37 | 40.06746 | -74.72027 | 11008 ft | 211 kts | 31° |
| 2026-04-30 19:37 | 40.07908 | -74.70889 | 11009 ft | 211 kts | 31° |
| 2026-04-30 19:37 | 40.09078 | -74.69741 | 11007 ft | 211 kts | 31° |
| 2026-04-30 19:38 | 40.10249 | -74.68592 | 11007 ft | 207 kts | 31° |
| 2026-04-30 19:38 | 40.11373 | -74.67484 | 11001 ft | 198 kts | 31° |
| 2026-04-30 19:38 | 40.12496 | -74.66385 | 10684 ft | 207 kts | 31° |
| 2026-04-30 19:38 | 40.13667 | -74.65237 | 10317 ft | 213 kts | 32° |
| 2026-04-30 19:39 | 40.14857 | -74.64065 | 9956 ft | 215 kts | 32° |
| 2026-04-30 19:39 | 40.16051 | -74.62886 | 9590 ft | 214 kts | 33° |
| 2026-04-30 19:39 | 40.17237 | -74.61716 | 9190 ft | 212 kts | 33° |
| 2026-04-30 19:39 | 40.18413 | -74.60558 | 8798 ft | 211 kts | 33° |
| 2026-04-30 19:40 | 40.19588 | -74.59401 | 8409 ft | 211 kts | 33° |
| 2026-04-30 19:40 | 40.20749 | -74.58258 | 8036 ft | 211 kts | 33° |
| 2026-04-30 19:40 | 40.21919 | -74.57102 | 7646 ft | 211 kts | 33° |
| 2026-04-30 19:40 | 40.23085 | -74.55950 | 7275 ft | 208 kts | 33° |
| 2026-04-30 19:41 | 40.24231 | -74.54818 | 6903 ft | 205 kts | 33° |
| 2026-04-30 19:41 | 40.25366 | -74.53698 | 6539 ft | 203 kts | 33° |
| 2026-04-30 19:41 | 40.26491 | -74.52587 | 6173 ft | 202 kts | 33° |
| 2026-04-30 19:41 | 40.27613 | -74.51478 | 5781 ft | 202 kts | 33° |
| 2026-04-30 19:42 | 40.28733 | -74.50370 | 5402 ft | 202 kts | 33° |
| 2026-04-30 19:42 | 40.29838 | -74.49278 | 5024 ft | 202 kts | 33° |
| 2026-04-30 19:42 | 40.30956 | -74.48171 | 4649 ft | 201 kts | 33° |
| 2026-04-30 19:42 | 40.32073 | -74.47065 | 4259 ft | 201 kts | 34° |
| 2026-04-30 19:43 | 40.33185 | -74.45964 | 3878 ft | 200 kts | 33° |
| 2026-04-30 19:43 | 40.34295 | -74.44863 | 3499 ft | 200 kts | 34° |
| 2026-04-30 19:43 | 40.35404 | -74.43763 | 3118 ft | 198 kts | 34° |
| 2026-04-30 19:44 | 40.37399 | -74.41780 | 2993 ft | 165 kts | 33° |
| 2026-04-30 19:44 | 40.38293 | -74.40894 | 2987 ft | 158 kts | 33° |
| 2026-04-30 19:44 | 40.39150 | -74.40044 | 2993 ft | 151 kts | 32° |
| 2026-04-30 19:44 | 40.40015 | -74.39193 | 2997 ft | 159 kts | 33° |
| 2026-04-30 19:45 | 40.40905 | -74.38310 | 2991 ft | 164 kts | 33° |
| 2026-04-30 19:45 | 40.41824 | -74.37396 | 2997 ft | 168 kts | 33° |
| 2026-04-30 19:45 | 40.42774 | -74.36450 | 3002 ft | 173 kts | 33° |
| 2026-04-30 19:45 | 40.43742 | -74.35487 | 2998 ft | 176 kts | 33° |
| 2026-04-30 19:46 | 40.44721 | -74.34512 | 3006 ft | 176 kts | 34° |
| 2026-04-30 19:46 | 40.45702 | -74.33535 | 3007 ft | 177 kts | 33° |
| 2026-04-30 19:46 | 40.46685 | -74.32558 | 3011 ft | 178 kts | 34° |
| 2026-04-30 19:46 | 40.47679 | -74.31566 | 3011 ft | 181 kts | 33° |
| 2026-04-30 19:47 | 40.48687 | -74.30565 | 3012 ft | 182 kts | 34° |
| 2026-04-30 19:47 | 40.49358 | -74.29898 | 3008 ft | 182 kts | 34° |
| 2026-04-30 19:47 | 40.50694 | -74.28564 | 3008 ft | 178 kts | 34° |
| 2026-04-30 19:47 | 40.51688 | -74.27612 | 3013 ft | 175 kts | 26° |
| 2026-04-30 19:48 | 40.52747 | -74.26936 | 3013 ft | 168 kts | 22° |
| 2026-04-30 19:48 | 40.53809 | -74.26271 | 2871 ft | 172 kts | 22° |
| 2026-04-30 19:48 | 40.54893 | -74.25587 | 2683 ft | 173 kts | 22° |
| 2026-04-30 19:48 | 40.55971 | -74.24904 | 2528 ft | 171 kts | 22° |
| 2026-04-30 19:49 | 40.57033 | -74.24231 | 2374 ft | 168 kts | 22° |
| 2026-04-30 19:49 | 40.59117 | -74.22910 | 2062 ft | 165 kts | 22° |
| 2026-04-30 19:49 | 40.60147 | -74.22232 | 2007 ft | 167 kts | 28° |
| 2026-04-30 19:50 | 40.60929 | -74.21069 | 2004 ft | 175 kts | 58° |
| 2026-04-30 19:50 | 40.61462 | -74.19613 | 2012 ft | 178 kts | 62° |
| 2026-04-30 19:50 | 40.62002 | -74.18149 | 2008 ft | 179 kts | 61° |
| 2026-04-30 19:50 | 40.62573 | -74.16681 | 2005 ft | 178 kts | 60° |
| 2026-04-30 19:51 | 40.63142 | -74.15235 | 2008 ft | 178 kts | 60° |
| 2026-04-30 19:51 | 40.63709 | -74.13785 | 2009 ft | 173 kts | 60° |
| 2026-04-30 19:51 | 40.64240 | -74.12447 | 2007 ft | 159 kts | 56° |
| 2026-04-30 19:51 | 40.64977 | -74.11516 | 1995 ft | 141 kts | 29° |
| 2026-04-30 19:52 | 40.65733 | -74.10828 | 1990 ft | 131 kts | 31° |
| 2026-04-30 19:52 | 40.66468 | -74.10156 | 1992 ft | 126 kts | 29° |
| 2026-04-30 19:52 | 40.67194 | -74.09565 | 1996 ft | 120 kts | 12° |
| 2026-04-30 19:52 | 40.67955 | -74.09664 | 2000 ft | 109 kts | 332° |
| 2026-04-30 19:53 | 40.68642 | -74.10092 | 1994 ft | 109 kts | 332° |
| 2026-04-30 19:53 | 40.69329 | -74.10516 | 1994 ft | 109 kts | 330° |
| 2026-04-30 19:53 | 40.69803 | -74.11249 | 1974 ft | 107 kts | 288° |
| 2026-04-30 19:53 | 40.69921 | -74.12221 | 1581 ft | 112 kts | 275° |
| 2026-04-30 19:54 | 40.69952 | -74.13196 | 1373 ft | 102 kts | 276° |
| 2026-04-30 19:54 | 40.70015 | -74.14124 | 886 ft | 101 kts | 277° |
| 2026-04-30 19:54 | 40.70080 | -74.14997 | 471 ft | 92 kts | 274° |
| 2026-04-30 19:54 | 40.70134 | -74.15837 | 28 ft | 89 kts | 272° |
| 2026-04-30 19:55 | 40.70178 | -74.16493 | 13 ft | 53 kts | 276° |
| 2026-04-30 19:55 | 40.70233 | -74.16719 | 14 ft | 19 kts | 342° |
| 2026-04-30 19:55 | 40.70301 | -74.16692 | 16 ft | 7 kts | 36° |
| 2026-04-30 19:55 | 40.70328 | -74.16679 | 17 ft | 0 kts | 11° |
| 2026-04-30 19:56 | 40.70375 | -74.16675 | 17 ft | 14 kts | 6° |
| 2026-04-30 19:56 | 40.70420 | -74.16759 | 17 ft | 15 kts | 300° |
| 2026-04-30 19:56 | 40.70407 | -74.16827 | 16 ft | 2 kts | 94° |
| 2026-04-30 19:56 | 40.70407 | -74.16822 | 16 ft | 1 kts | 91° |